Main page
METAR-TAF:

METAR-TAF

Airports :

Kos International Airport

Kos, Greece

latitude: 36-47N, longitude: 027-04E, elevation: 129 m

Current weather observation

The report was made 19 minutes ago, at 07:50 UTC
Wind 8 kt from the West
Temperature 21°C
Humidity 78%
Pressure 1017 hPa
Visibility 10 km or more
Few clouds at a height of 1800 ft

METAR: LGKO 150750Z 28008KT 9999 FEW018 21/17 Q1017

Time: 11:09 (08:09 UTC)

Forecast

The report was made 3 hours and 9 minutes ago, at 05:00 UTC
Forecast valid from 15 at 06 UTC to 16 at 06 UTC
Wind 12 kt from the Northwest
Visibility 10 km or more
Few clouds at a height of 1800 ft

TAF: LGKO 150500Z 1506/1606 32012KT 9999 FEW018

Weather observations and forecasts of more than 4000 airports (METAR and TAF reports).

The available stations are represented by yellow and red dots on the map.

Hover mouse over dot to see the name of the station.

Then click to see weather observations and forecasts.

To change the map : click on the green buttons with a black cross to zoom in, on the green button with a dash to zoom out, or on the green arrows for adjacent maps.


METAR-TAF: